ADDS METAR Data INFO
IDs: Format: Raw Decoded Include TAF

Data at: 1339 UTC 23 Jun 2018

KSUX 231252Z 12004KT 8SM CLR 17/16 A2979 RMK AO2 SLP083 T01670156
KSUX 231152Z 11005KT 8SM CLR 16/15 A2978 RMK AO2 SLP080 T01610150 10172 20144 56003
KSUX 231052Z 10003KT 8SM CLR 16/15 A2979 RMK AO2 SLP082 T01560150
KSUX 230952Z AUTO 10005KT 8SM CLR 16/15 A2977 RMK AO2 SLP075 T01560150
KSUX 230852Z AUTO 11003KT 8SM CLR 15/14 A2979 RMK AO2 SLP083 T01500144 56012
KSUX 230808Z AUTO 11003KT 8SM CLR 15/14 A2980 RMK AO2 T01500144
KSUX 230801Z AUTO 12004KT 2 1/2SM BR CLR 15/14 A2979 RMK AO2 T01500144
KSUX 230752Z AUTO 13003KT 3/4SM R31/P6000FT BR CLR 14/14 A2980 RMK AO2 SLP085 T01440139
KSUX 230745Z AUTO 14003KT 1 3/4SM BR CLR 14/14 A2980 RMK AO2 T01440144
KSUX 230652Z AUTO 09003KT 10SM CLR 16/15 A2981 RMK AO2 SLP088 T01610150
KSUX 230552Z AUTO 00000KT 10SM CLR 17/14 A2983 RMK AO2 SLP096 T01670144 10244 20161 402560144 51010
KSUX 230452Z AUTO 00000KT 10SM CLR 17/16 A2983 RMK AO2 SLP096 T01720156
KSUX 230352Z AUTO 00000KT 10SM CLR 18/16 A2982 RMK AO2 SLP094 T01780161
KSUX 230252Z AUTO 15005KT 10SM CLR 19/17 A2980 RMK AO2 SLP086 T01890167 55002
KSUX 230152Z 13006KT 10SM CLR 20/16 A2978 RMK AO2 SLP078 T02000161
KSUX 230052Z 14006KT 10SM OVC055 23/16 A2981 RMK AO2 SLP090 T02280161
KSUX 222352Z 11007KT 10SM FEW047 SCT060 23/16 A2980 RMK AO2 SLP087 T02330156 10256 20217 58014
KSUX 222252Z 10005KT 10SM CLR 25/15 A2982 RMK AO2 SLP090 T02500150
KSUX 222152Z 12004KT 10SM FEW041 26/16 A2984 RMK AO2 SLP098 T02560156
KSUX 222052Z 10004KT 10SM BKN050 26/16 A2984 RMK AO2 SLP100 T02560161 56021
KSUX 221952Z 03006KT 10SM FEW035 25/16 A2986 RMK AO2 SLP106 T02500161
KSUX 221852Z 00000KT 10SM FEW038 BKN048 BKN060 24/16 A2989 RMK AO2 SLP117 T02390161
KSUX 221752Z 00000KT 10SM SCT025 BKN031 BKN038 22/16 A2991 RMK AO2 SLP124 T02170161 10228 20161 58009
KSUX 221736Z VRB05KT 10SM SCT025 BKN032 22/17 A2991 RMK AO2 T02220167
KSUX 221701Z 02005KT 10SM BKN025 BKN032 22/16 A2992 RMK AO2 T02170156
KSUX 221652Z 10SM SCT024 21/16 A2992 RMK AO2 SLP128 T02110156
KSUX 221552Z 35004KT 10SM FEW037 21/16 A2993 RMK AO2 SLP131 T02060156
KSUX 221452Z 32006KT 10SM FEW022 18/15 A2994 RMK AO2 SLP134 T01830150 50008
KSUX 221352Z 35005KT 10SM CLR 19/14 A2994 RMK AO2 SLP134 T01940144
KSUX 221252Z 02005KT 10SM CLR 17/13 A2993 RMK AO2 SLP132 T01670133
KSUX 221152Z 02007KT 10SM CLR 16/13 A2991 RMK AO2 SLP126 70005 T01610133 10167 20144 56004
KSUX 221052Z 01007KT 10SM BKN043 OVC060 16/13 A2992 RMK AO2 SLP129 T01560133
KSUX 220952Z AUTO 03005KT 10SM SCT039 OVC055 16/13 A2991 RMK AO2 SLP127 T01610133
KSUX 220937Z AUTO 04007KT 10SM SCT028 OVC055 16/13 A2991 RMK AO2 T01610133
KSUX 220852Z AUTO 02007KT 10SM OVC028 17/14 A2992 RMK AO2 SLP131 T01670139 53005
KSUX 220843Z AUTO 01007KT 10SM OVC028 17/14 A2993 RMK AO2 T01670139
KSUX 220752Z AUTO 34006KT 10SM FEW040 BKN047 OVC110 16/14 A2992 RMK AO2 SLP129 T01560139
KSUX 220652Z AUTO 34008KT 10SM CLR 15/13 A2991 RMK AO2 SLP126 T01500133
KSUX 220552Z AUTO 33004KT 10SM FEW050 16/14 A2991 RMK AO2 SLP126 T01560139 10189 20156 402000156 58001
KSUX 220452Z AUTO 01006KT 10SM CLR 17/14 A2992 RMK AO2 SLP127 T01670139
KSUX 220352Z AUTO 02005KT 10SM FEW027 BKN041 17/14 A2992 RMK AO2 SLP130 T01720144
KSUX 220252Z AUTO 03007KT 10SM OVC030 18/14 A2991 RMK AO2 SLP125 T01780144 51013
KSUX 220242Z AUTO 03007KT 10SM SCT025 OVC032 18/14 A2991 RMK AO2 T01780144
KSUX 220152Z 04012KT 10SM BKN022 OVC027 18/14 A2990 RMK AO2 SLP120 T01830144